sensor_id;sensor_type;location;lat;lon;timestamp;temperature;humidity
66184;DHT22;52989;48.796;9.806;2022-09-11T00:01:28;14.90;99.90
66184;DHT22;52989;48.796;9.806;2022-09-11T00:03:55;15.10;99.90
66184;DHT22;52989;48.796;9.806;2022-09-11T00:06:22;14.80;99.90
66184;DHT22;52989;48.796;9.806;2022-09-11T00:08:51;14.40;99.90
66184;DHT22;52989;48.796;9.806;2022-09-11T00:11:20;14.80;99.90
66184;DHT22;52989;48.796;9.806;2022-09-11T00:13:50;14.70;99.90
66184;DHT22;52989;48.796;9.806;2022-09-11T00:18:43;15.00;99.90
66184;DHT22;52989;48.796;9.806;2022-09-11T00:21:11;14.90;99.90
66184;DHT22;52989;48.796;9.806;2022-09-11T00:23:36;14.60;99.90
66184;DHT22;52989;48.796;9.806;2022-09-11T00:26:03;14.50;99.90
66184;DHT22;52989;48.796;9.806;2022-09-11T00:28:30;14.80;99.90
66184;DHT22;52989;48.796;9.806;2022-09-11T00:31:01;14.80;99.90
66184;DHT22;52989;48.796;9.806;2022-09-11T00:33:27;14.30;99.90
66184;DHT22;52989;48.796;9.806;2022-09-11T00:35:59;15.10;99.90
66184;DHT22;52989;48.796;9.806;2022-09-11T00:38:27;15.20;99.90
66184;DHT22;52989;48.796;9.806;2022-09-11T00:40:54;15.10;99.90
66184;DHT22;52989;48.796;9.806;2022-09-11T00:43:20;14.80;99.90
66184;DHT22;52989;48.796;9.806;2022-09-11T00:45:51;14.80;99.90
66184;DHT22;52989;48.796;9.806;2022-09-11T00:48:20;15.10;99.90
66184;DHT22;52989;48.796;9.806;2022-09-11T00:50:47;15.00;99.90
66184;DHT22;52989;48.796;9.806;2022-09-11T00:53:15;15.10;99.90
66184;DHT22;52989;48.796;9.806;2022-09-11T00:55:45;15.30;99.90
66184;DHT22;52989;48.796;9.806;2022-09-11T00:58:21;14.70;99.90
66184;DHT22;52989;48.796;9.806;2022-09-11T01:00:51;15.00;99.90
66184;DHT22;52989;48.796;9.806;2022-09-11T01:03:18;14.60;99.90
66184;DHT22;52989;48.796;9.806;2022-09-11T01:05:44;14.60;99.90
66184;DHT22;52989;48.796;9.806;2022-09-11T01:08:10;15.00;99.90
66184;DHT22;52989;48.796;9.806;2022-09-11T01:11:04;14.60;99.90
66184;DHT22;52989;48.796;9.806;2022-09-11T01:13:50;15.00;99.90
66184;DHT22;52989;48.796;9.806;2022-09-11T01:19:00;15.20;99.90
66184;DHT22;52989;48.796;9.806;2022-09-11T01:24:18;14.80;99.90
66184;DHT22;52989;48.796;9.806;2022-09-11T01:29:58;14.70;99.90
66184;DHT22;52989;48.796;9.806;2022-09-11T01:38:20;14.50;99.90
66184;DHT22;52989;48.796;9.806;2022-09-11T01:41:11;14.30;99.90
66184;DHT22;52989;48.796;9.806;2022-09-11T01:43:48;14.10;99.90
66184;DHT22;52989;48.796;9.806;2022-09-11T01:46:18;14.40;99.90
66184;DHT22;52989;48.796;9.806;2022-09-11T01:48:52;14.50;99.90
66184;DHT22;52989;48.796;9.806;2022-09-11T01:51:22;14.50;99.90
66184;DHT22;52989;48.796;9.806;2022-09-11T01:53:51;14.60;99.90
66184;DHT22;52989;48.796;9.806;2022-09-11T01:56:22;14.70;99.90
66184;DHT22;52989;48.796;9.806;2022-09-11T01:58:54;14.60;99.90
66184;DHT22;52989;48.796;9.806;2022-09-11T02:01:26;14.70;99.90
66184;DHT22;52989;48.796;9.806;2022-09-11T02:04:13;14.70;99.90
66184;DHT22;52989;48.796;9.806;2022-09-11T02:06:45;14.60;99.90
66184;DHT22;52989;48.796;9.806;2022-09-11T02:09:16;14.90;99.90
66184;DHT22;52989;48.796;9.806;2022-09-11T02:11:47;14.50;99.90
66184;DHT22;52989;48.796;9.806;2022-09-11T02:14:21;15.00;99.90
66184;DHT22;52989;48.796;9.806;2022-09-11T02:16:50;14.80;99.90
66184;DHT22;52989;48.796;9.806;2022-09-11T02:19:23;14.90;99.90
66184;DHT22;52989;48.796;9.806;2022-09-11T02:21:50;15.30;99.90
66184;DHT22;52989;48.796;9.806;2022-09-11T02:24:16;14.90;99.90
66184;DHT22;52989;48.796;9.806;2022-09-11T02:26:45;14.90;99.90
66184;DHT22;52989;48.796;9.806;2022-09-11T02:29:12;14.60;99.90
66184;DHT22;52989;48.796;9.806;2022-09-11T02:31:39;14.80;99.90
66184;DHT22;52989;48.796;9.806;2022-09-11T02:34:05;14.70;99.90
66184;DHT22;52989;48.796;9.806;2022-09-11T02:39:32;14.70;99.90
66184;DHT22;52989;48.796;9.806;2022-09-11T02:42:18;15.10;99.90
66184;DHT22;52989;48.796;9.806;2022-09-11T02:51:11;15.10;99.90
66184;DHT22;52989;48.796;9.806;2022-09-11T02:53:49;15.30;99.90
66184;DHT22;52989;48.796;9.806;2022-09-11T02:56:30;14.90;99.90
66184;DHT22;52989;48.796;9.806;2022-09-11T02:59:04;15.20;99.90
66184;DHT22;52989;48.796;9.806;2022-09-11T03:01:48;15.10;99.90
66184;DHT22;52989;48.796;9.806;2022-09-11T03:04:16;14.80;99.90
66184;DHT22;52989;48.796;9.806;2022-09-11T03:06:43;15.30;99.90
66184;DHT22;52989;48.796;9.806;2022-09-11T03:09:09;14.80;99.90
66184;DHT22;52989;48.796;9.806;2022-09-11T03:11:35;14.70;99.90
66184;DHT22;52989;48.796;9.806;2022-09-11T03:14:00;14.70;99.90
66184;DHT22;52989;48.796;9.806;2022-09-11T03:16:26;14.90;99.90
66184;DHT22;52989;48.796;9.806;2022-09-11T03:18:52;14.50;99.90
66184;DHT22;52989;48.796;9.806;2022-09-11T03:21:17;14.50;99.90
66184;DHT22;52989;48.796;9.806;2022-09-11T03:23:43;14.80;99.90
66184;DHT22;52989;48.796;9.806;2022-09-11T03:26:09;14.90;99.90
66184;DHT22;52989;48.796;9.806;2022-09-11T03:28:35;15.30;99.90
66184;DHT22;52989;48.796;9.806;2022-09-11T03:31:00;15.40;99.90
66184;DHT22;52989;48.796;9.806;2022-09-11T03:33:26;15.20;99.90
66184;DHT22;52989;48.796;9.806;2022-09-11T03:35:52;14.90;99.90
66184;DHT22;52989;48.796;9.806;2022-09-11T03:38:19;15.10;99.90
66184;DHT22;52989;48.796;9.806;2022-09-11T03:40:44;15.40;99.90
66184;DHT22;52989;48.796;9.806;2022-09-11T03:43:10;15.40;99.90
66184;DHT22;52989;48.796;9.806;2022-09-11T03:45:42;15.10;99.90
66184;DHT22;52989;48.796;9.806;2022-09-11T03:48:09;15.70;99.90
66184;DHT22;52989;48.796;9.806;2022-09-11T03:50:34;15.00;99.90
66184;DHT22;52989;48.796;9.806;2022-09-11T03:53:00;14.60;99.90
66184;DHT22;52989;48.796;9.806;2022-09-11T03:55:26;15.50;99.90
66184;DHT22;52989;48.796;9.806;2022-09-11T03:57:51;15.30;99.90
66184;DHT22;52989;48.796;9.806;2022-09-11T04:00:17;15.60;99.90
66184;DHT22;52989;48.796;9.806;2022-09-11T04:02:42;14.90;99.90
66184;DHT22;52989;48.796;9.806;2022-09-11T04:05:08;15.10;99.90
66184;DHT22;52989;48.796;9.806;2022-09-11T04:07:34;15.20;99.90
66184;DHT22;52989;48.796;9.806;2022-09-11T04:10:00;15.40;99.90
66184;DHT22;52989;48.796;9.806;2022-09-11T04:12:25;15.60;99.90
66184;DHT22;52989;48.796;9.806;2022-09-11T04:14:51;15.30;99.90
66184;DHT22;52989;48.796;9.806;2022-09-11T04:17:17;14.90;99.90
66184;DHT22;52989;48.796;9.806;2022-09-11T04:19:43;15.10;99.90
66184;DHT22;52989;48.796;9.806;2022-09-11T04:22:09;15.00;99.90
66184;DHT22;52989;48.796;9.806;2022-09-11T04:24:35;15.60;99.90
66184;DHT22;52989;48.796;9.806;2022-09-11T04:27:00;15.20;99.90
66184;DHT22;52989;48.796;9.806;2022-09-11T04:29:26;15.40;99.90
66184;DHT22;52989;48.796;9.806;2022-09-11T04:31:52;15.10;99.90
66184;DHT22;52989;48.796;9.806;2022-09-11T04:34:18;15.20;99.90
66184;DHT22;52989;48.796;9.806;2022-09-11T04:36:44;15.30;99.90
66184;DHT22;52989;48.796;9.806;2022-09-11T04:39:10;15.50;99.90
66184;DHT22;52989;48.796;9.806;2022-09-11T04:41:36;15.20;99.90
66184;DHT22;52989;48.796;9.806;2022-09-11T04:44:01;15.50;99.90
66184;DHT22;52989;48.796;9.806;2022-09-11T04:46:27;15.30;99.90
66184;DHT22;52989;48.796;9.806;2022-09-11T04:48:55;14.90;99.90
66184;DHT22;52989;48.796;9.806;2022-09-11T04:51:31;14.70;99.90
66184;DHT22;52989;48.796;9.806;2022-09-11T04:53:58;15.00;99.90
66184;DHT22;52989;48.796;9.806;2022-09-11T04:56:26;14.70;99.90
66184;DHT22;52989;48.796;9.806;2022-09-11T04:58:58;14.60;99.90
66184;DHT22;52989;48.796;9.806;2022-09-11T05:01:25;14.90;99.90
66184;DHT22;52989;48.796;9.806;2022-09-11T05:03:51;15.20;99.90
66184;DHT22;52989;48.796;9.806;2022-09-11T05:06:17;14.90;99.90
66184;DHT22;52989;48.796;9.806;2022-09-11T05:08:43;14.90;99.90
66184;DHT22;52989;48.796;9.806;2022-09-11T05:11:11;15.10;99.90
66184;DHT22;52989;48.796;9.806;2022-09-11T05:13:38;15.10;99.90
66184;DHT22;52989;48.796;9.806;2022-09-11T05:16:06;15.10;99.90
66184;DHT22;52989;48.796;9.806;2022-09-11T05:18:33;14.90;99.90
66184;DHT22;52989;48.796;9.806;2022-09-11T05:21:08;14.90;99.90
66184;DHT22;52989;48.796;9.806;2022-09-11T05:23:35;15.20;99.90
66184;DHT22;52989;48.796;9.806;2022-09-11T05:26:02;15.70;99.90
66184;DHT22;52989;48.796;9.806;2022-09-11T05:28:29;15.50;99.90
66184;DHT22;52989;48.796;9.806;2022-09-11T05:30:55;15.40;99.90
66184;DHT22;52989;48.796;9.806;2022-09-11T05:33:23;14.80;99.90
66184;DHT22;52989;48.796;9.806;2022-09-11T05:35:50;14.80;99.90
66184;DHT22;52989;48.796;9.806;2022-09-11T05:38:20;15.20;99.90
66184;DHT22;52989;48.796;9.806;2022-09-11T05:40:47;15.30;99.90
66184;DHT22;52989;48.796;9.806;2022-09-11T05:43:14;14.90;99.90
66184;DHT22;52989;48.796;9.806;2022-09-11T05:45:41;15.00;99.90
66184;DHT22;52989;48.796;9.806;2022-09-11T05:48:07;15.40;99.90
66184;DHT22;52989;48.796;9.806;2022-09-11T05:50:33;15.50;99.90
66184;DHT22;52989;48.796;9.806;2022-09-11T05:52:59;15.10;99.90
66184;DHT22;52989;48.796;9.806;2022-09-11T05:55:25;15.20;99.90
66184;DHT22;52989;48.796;9.806;2022-09-11T05:57:51;15.20;99.90
66184;DHT22;52989;48.796;9.806;2022-09-11T06:00:17;15.10;99.90
66184;DHT22;52989;48.796;9.806;2022-09-11T06:02:43;15.20;99.90
66184;DHT22;52989;48.796;9.806;2022-09-11T06:05:10;15.40;99.90
66184;DHT22;52989;48.796;9.806;2022-09-11T06:07:35;15.30;99.90
66184;DHT22;52989;48.796;9.806;2022-09-11T06:10:01;15.50;99.90
66184;DHT22;52989;48.796;9.806;2022-09-11T06:12:27;15.20;99.90
66184;DHT22;52989;48.796;9.806;2022-09-11T06:14:52;15.00;99.90
66184;DHT22;52989;48.796;9.806;2022-09-11T06:17:19;15.50;99.90
66184;DHT22;52989;48.796;9.806;2022-09-11T06:19:45;15.20;99.90
66184;DHT22;52989;48.796;9.806;2022-09-11T06:22:11;15.20;99.90
66184;DHT22;52989;48.796;9.806;2022-09-11T06:24:37;15.00;99.90
66184;DHT22;52989;48.796;9.806;2022-09-11T06:27:02;15.10;99.90
66184;DHT22;52989;48.796;9.806;2022-09-11T06:29:28;15.20;99.90
66184;DHT22;52989;48.796;9.806;2022-09-11T06:31:57;15.60;99.90
66184;DHT22;52989;48.796;9.806;2022-09-11T06:34:24;15.90;99.90
66184;DHT22;52989;48.796;9.806;2022-09-11T06:36:49;15.60;99.90
66184;DHT22;52989;48.796;9.806;2022-09-11T06:39:16;15.50;99.90
66184;DHT22;52989;48.796;9.806;2022-09-11T06:41:41;16.00;99.90
66184;DHT22;52989;48.796;9.806;2022-09-11T06:44:08;15.70;99.90
66184;DHT22;52989;48.796;9.806;2022-09-11T06:46:35;15.60;99.90
66184;DHT22;52989;48.796;9.806;2022-09-11T06:49:01;15.20;99.90
66184;DHT22;52989;48.796;9.806;2022-09-11T06:51:27;15.50;99.90
66184;DHT22;52989;48.796;9.806;2022-09-11T06:53:56;15.40;99.90
66184;DHT22;52989;48.796;9.806;2022-09-11T06:56:22;15.20;99.90
66184;DHT22;52989;48.796;9.806;2022-09-11T06:58:48;15.50;99.90
66184;DHT22;52989;48.796;9.806;2022-09-11T07:01:16;15.30;99.90
66184;DHT22;52989;48.796;9.806;2022-09-11T07:03:46;15.40;99.90
66184;DHT22;52989;48.796;9.806;2022-09-11T07:06:15;15.50;99.90
66184;DHT22;52989;48.796;9.806;2022-09-11T07:08:41;15.60;99.90
66184;DHT22;52989;48.796;9.806;2022-09-11T07:11:07;15.80;99.90
66184;DHT22;52989;48.796;9.806;2022-09-11T07:13:33;15.70;99.90
66184;DHT22;52989;48.796;9.806;2022-09-11T07:16:03;15.70;99.90
66184;DHT22;52989;48.796;9.806;2022-09-11T07:18:33;15.80;99.90
66184;DHT22;52989;48.796;9.806;2022-09-11T07:21:06;16.10;99.90
66184;DHT22;52989;48.796;9.806;2022-09-11T07:23:33;15.90;99.90
66184;DHT22;52989;48.796;9.806;2022-09-11T07:26:10;16.10;99.90
66184;DHT22;52989;48.796;9.806;2022-09-11T07:28:37;16.20;99.90
66184;DHT22;52989;48.796;9.806;2022-09-11T07:31:07;16.00;99.90
66184;DHT22;52989;48.796;9.806;2022-09-11T07:33:43;16.00;99.90
66184;DHT22;52989;48.796;9.806;2022-09-11T07:36:21;16.20;99.90
66184;DHT22;52989;48.796;9.806;2022-09-11T07:38:48;16.10;99.90
66184;DHT22;52989;48.796;9.806;2022-09-11T07:41:16;16.30;99.90
66184;DHT22;52989;48.796;9.806;2022-09-11T07:43:42;16.10;99.90
66184;DHT22;52989;48.796;9.806;2022-09-11T07:46:11;16.10;99.90
66184;DHT22;52989;48.796;9.806;2022-09-11T07:48:37;16.30;99.90
66184;DHT22;52989;48.796;9.806;2022-09-11T07:51:08;16.30;99.90
66184;DHT22;52989;48.796;9.806;2022-09-11T07:53:43;16.20;99.90
66184;DHT22;52989;48.796;9.806;2022-09-11T07:56:09;16.50;99.90
66184;DHT22;52989;48.796;9.806;2022-09-11T07:58:37;16.50;99.90
66184;DHT22;52989;48.796;9.806;2022-09-11T08:01:04;16.50;99.90
66184;DHT22;52989;48.796;9.806;2022-09-11T08:03:30;16.30;99.90
66184;DHT22;52989;48.796;9.806;2022-09-11T08:05:58;16.30;99.90
66184;DHT22;52989;48.796;9.806;2022-09-11T08:08:24;16.80;99.90
66184;DHT22;52989;48.796;9.806;2022-09-11T08:10:50;16.60;99.90
66184;DHT22;52989;48.796;9.806;2022-09-11T08:13:16;16.80;99.90
66184;DHT22;52989;48.796;9.806;2022-09-11T08:15:48;16.80;99.90
66184;DHT22;52989;48.796;9.806;2022-09-11T08:18:15;16.80;99.90
66184;DHT22;52989;48.796;9.806;2022-09-11T08:20:41;16.70;99.90
66184;DHT22;52989;48.796;9.806;2022-09-11T08:23:07;16.80;99.90
66184;DHT22;52989;48.796;9.806;2022-09-11T08:25:37;17.00;99.90
66184;DHT22;52989;48.796;9.806;2022-09-11T08:28:03;16.90;99.90
66184;DHT22;52989;48.796;9.806;2022-09-11T08:30:30;17.00;99.90
66184;DHT22;52989;48.796;9.806;2022-09-11T08:32:56;16.70;99.90
66184;DHT22;52989;48.796;9.806;2022-09-11T08:35:21;16.90;99.90
66184;DHT22;52989;48.796;9.806;2022-09-11T08:37:47;16.90;99.90
66184;DHT22;52989;48.796;9.806;2022-09-11T08:40:13;16.80;99.90
66184;DHT22;52989;48.796;9.806;2022-09-11T08:42:40;17.10;99.90
66184;DHT22;52989;48.796;9.806;2022-09-11T08:45:13;17.20;99.90
66184;DHT22;52989;48.796;9.806;2022-09-11T08:47:42;17.20;99.90
66184;DHT22;52989;48.796;9.806;2022-09-11T08:50:21;17.40;99.90
66184;DHT22;52989;48.796;9.806;2022-09-11T08:52:48;17.30;99.90
66184;DHT22;52989;48.796;9.806;2022-09-11T08:55:24;17.50;99.90
66184;DHT22;52989;48.796;9.806;2022-09-11T08:57:59;17.40;99.90
66184;DHT22;52989;48.796;9.806;2022-09-11T09:00:32;17.30;99.90
66184;DHT22;52989;48.796;9.806;2022-09-11T09:03:20;17.00;99.90
66184;DHT22;52989;48.796;9.806;2022-09-11T09:06:10;16.80;99.90
66184;DHT22;52989;48.796;9.806;2022-09-11T09:09:10;17.10;99.90
66184;DHT22;52989;48.796;9.806;2022-09-11T09:12:04;16.90;99.90
66184;DHT22;52989;48.796;9.806;2022-09-11T09:15:10;17.00;99.90
66184;DHT22;52989;48.796;9.806;2022-09-11T09:17:46;17.00;99.90
66184;DHT22;52989;48.796;9.806;2022-09-11T09:20:24;17.10;99.90
66184;DHT22;52989;48.796;9.806;2022-09-11T09:23:05;17.10;99.90
66184;DHT22;52989;48.796;9.806;2022-09-11T09:25:38;17.10;99.90
66184;DHT22;52989;48.796;9.806;2022-09-11T09:28:22;17.20;99.90
66184;DHT22;52989;48.796;9.806;2022-09-11T09:31:04;17.50;99.90
66184;DHT22;52989;48.796;9.806;2022-09-11T09:33:33;17.50;99.90
66184;DHT22;52989;48.796;9.806;2022-09-11T09:36:17;17.40;99.90
66184;DHT22;52989;48.796;9.806;2022-09-11T09:38:45;17.40;99.90
66184;DHT22;52989;48.796;9.806;2022-09-11T09:44:02;17.60;99.90
66184;DHT22;52989;48.796;9.806;2022-09-11T09:46:51;17.30;99.90
66184;DHT22;52989;48.796;9.806;2022-09-11T09:49:31;17.70;99.90
66184;DHT22;52989;48.796;9.806;2022-09-11T09:51:59;17.70;99.90
66184;DHT22;52989;48.796;9.806;2022-09-11T09:54:32;18.10;99.90
66184;DHT22;52989;48.796;9.806;2022-09-11T09:57:05;18.10;99.90
66184;DHT22;52989;48.796;9.806;2022-09-11T09:59:50;18.10;99.90
66184;DHT22;52989;48.796;9.806;2022-09-11T10:05:14;18.20;99.90
66184;DHT22;52989;48.796;9.806;2022-09-11T10:10:56;18.10;99.90
66184;DHT22;52989;48.796;9.806;2022-09-11T10:13:24;18.00;99.90
66184;DHT22;52989;48.796;9.806;2022-09-11T10:15:56;18.20;99.90
66184;DHT22;52989;48.796;9.806;2022-09-11T10:23:52;17.90;99.90
66184;DHT22;52989;48.796;9.806;2022-09-11T10:26:24;17.60;99.90
66184;DHT22;52989;48.796;9.806;2022-09-11T10:28:53;17.60;99.90
66184;DHT22;52989;48.796;9.806;2022-09-11T10:31:19;17.70;99.90
66184;DHT22;52989;48.796;9.806;2022-09-11T10:33:51;17.70;99.90
66184;DHT22;52989;48.796;9.806;2022-09-11T10:36:25;17.60;99.90
66184;DHT22;52989;48.796;9.806;2022-09-11T10:38:51;17.50;99.90
66184;DHT22;52989;48.796;9.806;2022-09-11T10:41:21;17.60;99.90
66184;DHT22;52989;48.796;9.806;2022-09-11T10:43:54;17.50;99.90
66184;DHT22;52989;48.796;9.806;2022-09-11T10:46:36;17.50;99.90
66184;DHT22;52989;48.796;9.806;2022-09-11T10:51:33;17.80;99.90
66184;DHT22;52989;48.796;9.806;2022-09-11T10:54:03;17.90;99.90
66184;DHT22;52989;48.796;9.806;2022-09-11T11:02:16;18.60;99.90
66184;DHT22;52989;48.796;9.806;2022-09-11T11:04:44;19.10;99.90
66184;DHT22;52989;48.796;9.806;2022-09-11T11:12:58;19.10;99.90
66184;DHT22;52989;48.796;9.806;2022-09-11T11:15:53;19.30;99.90
66184;DHT22;52989;48.796;9.806;2022-09-11T11:18:54;19.40;99.90
66184;DHT22;52989;48.796;9.806;2022-09-11T11:29:42;19.10;99.90
66184;DHT22;52989;48.796;9.806;2022-09-11T11:35:21;18.80;99.90
66184;DHT22;52989;48.796;9.806;2022-09-11T11:37:49;19.30;99.90
66184;DHT22;52989;48.796;9.806;2022-09-11T11:43:10;20.20;99.90
66184;DHT22;52989;48.796;9.806;2022-09-11T11:45:51;19.70;99.90
66184;DHT22;52989;48.796;9.806;2022-09-11T11:48:23;19.50;99.90
66184;DHT22;52989;48.796;9.806;2022-09-11T11:50:52;19.80;99.90
66184;DHT22;52989;48.796;9.806;2022-09-11T11:56:25;19.70;99.80
66184;DHT22;52989;48.796;9.806;2022-09-11T12:01:43;20.20;98.50
66184;DHT22;52989;48.796;9.806;2022-09-11T12:04:48;20.20;98.90
66184;DHT22;52989;48.796;9.806;2022-09-11T12:09:48;20.50;98.40
66184;DHT22;52989;48.796;9.806;2022-09-11T12:12:15;20.90;96.70
66184;DHT22;52989;48.796;9.806;2022-09-11T12:15:08;20.50;95.70
66184;DHT22;52989;48.796;9.806;2022-09-11T12:17:41;20.30;94.60
66184;DHT22;52989;48.796;9.806;2022-09-11T12:20:29;20.00;96.80
66184;DHT22;52989;48.796;9.806;2022-09-11T12:22:56;19.80;96.20
66184;DHT22;52989;48.796;9.806;2022-09-11T12:36:26;19.30;97.40
66184;DHT22;52989;48.796;9.806;2022-09-11T12:39:00;19.30;97.10
66184;DHT22;52989;48.796;9.806;2022-09-11T12:41:34;19.30;96.30
66184;DHT22;52989;48.796;9.806;2022-09-11T12:44:27;19.30;97.90
66184;DHT22;52989;48.796;9.806;2022-09-11T12:49:23;18.80;97.70
66184;DHT22;52989;48.796;9.806;2022-09-11T12:51:54;18.80;98.80
66184;DHT22;52989;48.796;9.806;2022-09-11T12:54:26;18.60;98.60
66184;DHT22;52989;48.796;9.806;2022-09-11T12:57:05;19.00;98.10
66184;DHT22;52989;48.796;9.806;2022-09-11T12:59:36;19.20;97.50
66184;DHT22;52989;48.796;9.806;2022-09-11T13:02:17;19.60;96.70
66184;DHT22;52989;48.796;9.806;2022-09-11T13:04:45;19.80;96.30
66184;DHT22;52989;48.796;9.806;2022-09-11T13:07:30;19.90;96.00
66184;DHT22;52989;48.796;9.806;2022-09-11T13:10:00;19.90;95.20
66184;DHT22;52989;48.796;9.806;2022-09-11T13:12:48;19.90;94.80
66184;DHT22;52989;48.796;9.806;2022-09-11T13:15:40;20.10;94.30
66184;DHT22;52989;48.796;9.806;2022-09-11T13:18:28;20.50;95.50
66184;DHT22;52989;48.796;9.806;2022-09-11T13:21:20;20.60;93.10
66184;DHT22;52989;48.796;9.806;2022-09-11T13:23:46;20.50;93.00
66184;DHT22;52989;48.796;9.806;2022-09-11T13:26:32;20.40;93.80
66184;DHT22;52989;48.796;9.806;2022-09-11T13:29:00;20.40;94.50
66184;DHT22;52989;48.796;9.806;2022-09-11T13:31:36;20.20;95.20
66184;DHT22;52989;48.796;9.806;2022-09-11T13:34:12;19.90;96.20
66184;DHT22;52989;48.796;9.806;2022-09-11T13:36:39;19.80;96.90
66184;DHT22;52989;48.796;9.806;2022-09-11T13:39:06;19.80;96.50
66184;DHT22;52989;48.796;9.806;2022-09-11T13:41:36;19.90;96.40
66184;DHT22;52989;48.796;9.806;2022-09-11T13:44:25;19.50;96.90
66184;DHT22;52989;48.796;9.806;2022-09-11T13:46:55;19.60;95.80
66184;DHT22;52989;48.796;9.806;2022-09-11T13:51:53;20.00;93.30
66184;DHT22;52989;48.796;9.806;2022-09-11T13:54:27;20.10;93.50
66184;DHT22;52989;48.796;9.806;2022-09-11T14:05:11;20.30;92.90
66184;DHT22;52989;48.796;9.806;2022-09-11T14:08:00;20.30;92.60
66184;DHT22;52989;48.796;9.806;2022-09-11T14:13:09;20.20;92.20
66184;DHT22;52989;48.796;9.806;2022-09-11T14:15:50;20.20;91.90
66184;DHT22;52989;48.796;9.806;2022-09-11T14:21:16;20.30;92.00
66184;DHT22;52989;48.796;9.806;2022-09-11T14:23:49;20.40;93.10
66184;DHT22;52989;48.796;9.806;2022-09-11T14:26:18;20.30;91.90
66184;DHT22;52989;48.796;9.806;2022-09-11T14:31:30;20.40;91.80
66184;DHT22;52989;48.796;9.806;2022-09-11T14:34:25;20.20;92.60
66184;DHT22;52989;48.796;9.806;2022-09-11T14:36:52;20.00;92.60
66184;DHT22;52989;48.796;9.806;2022-09-11T14:39:24;19.90;92.10
66184;DHT22;52989;48.796;9.806;2022-09-11T14:41:52;19.90;92.60
66184;DHT22;52989;48.796;9.806;2022-09-11T14:44:18;19.80;92.80
66184;DHT22;52989;48.796;9.806;2022-09-11T14:46:44;19.70;92.60
66184;DHT22;52989;48.796;9.806;2022-09-11T14:49:09;19.80;93.10
66184;DHT22;52989;48.796;9.806;2022-09-11T14:51:37;19.70;93.00
66184;DHT22;52989;48.796;9.806;2022-09-11T14:54:04;19.80;92.60
66184;DHT22;52989;48.796;9.806;2022-09-11T14:56:30;19.80;92.60
66184;DHT22;52989;48.796;9.806;2022-09-11T14:58:56;19.70;93.40
66184;DHT22;52989;48.796;9.806;2022-09-11T15:01:23;19.80;93.50
66184;DHT22;52989;48.796;9.806;2022-09-11T15:03:50;19.90;92.50
66184;DHT22;52989;48.796;9.806;2022-09-11T15:06:17;19.80;91.90
66184;DHT22;52989;48.796;9.806;2022-09-11T15:08:45;20.00;91.80
66184;DHT22;52989;48.796;9.806;2022-09-11T15:11:11;20.20;91.80
66184;DHT22;52989;48.796;9.806;2022-09-11T15:13:37;20.10;92.00
66184;DHT22;52989;48.796;9.806;2022-09-11T15:16:03;20.40;92.20
66184;DHT22;52989;48.796;9.806;2022-09-11T15:18:30;20.60;92.30
66184;DHT22;52989;48.796;9.806;2022-09-11T15:20:56;20.70;93.20
66184;DHT22;52989;48.796;9.806;2022-09-11T15:23:22;20.90;91.90
66184;DHT22;52989;48.796;9.806;2022-09-11T15:25:48;21.10;91.90
66184;DHT22;52989;48.796;9.806;2022-09-11T15:28:13;21.20;91.30
66184;DHT22;52989;48.796;9.806;2022-09-11T15:30:39;21.30;91.20
66184;DHT22;52989;48.796;9.806;2022-09-11T15:33:07;21.30;91.60
66184;DHT22;52989;48.796;9.806;2022-09-11T15:35:33;20.90;90.20
66184;DHT22;52989;48.796;9.806;2022-09-11T15:37:59;20.80;89.70
66184;DHT22;52989;48.796;9.806;2022-09-11T15:40:24;20.70;87.30
66184;DHT22;52989;48.796;9.806;2022-09-11T15:42:50;20.70;85.90
66184;DHT22;52989;48.796;9.806;2022-09-11T15:45:16;20.90;87.50
66184;DHT22;52989;48.796;9.806;2022-09-11T15:47:42;20.70;86.50
66184;DHT22;52989;48.796;9.806;2022-09-11T15:50:08;20.50;85.10
66184;DHT22;52989;48.796;9.806;2022-09-11T15:52:35;20.40;87.10
66184;DHT22;52989;48.796;9.806;2022-09-11T15:55:01;20.30;88.80
66184;DHT22;52989;48.796;9.806;2022-09-11T15:57:28;20.30;88.90
66184;DHT22;52989;48.796;9.806;2022-09-11T15:59:55;20.40;91.10
66184;DHT22;52989;48.796;9.806;2022-09-11T16:02:22;20.20;90.40
66184;DHT22;52989;48.796;9.806;2022-09-11T16:04:48;20.30;90.70
66184;DHT22;52989;48.796;9.806;2022-09-11T16:07:13;20.20;91.20
66184;DHT22;52989;48.796;9.806;2022-09-11T16:09:39;20.30;91.60
66184;DHT22;52989;48.796;9.806;2022-09-11T16:12:05;20.40;90.90
66184;DHT22;52989;48.796;9.806;2022-09-11T16:14:34;20.30;91.30
66184;DHT22;52989;48.796;9.806;2022-09-11T16:17:01;20.10;91.20
66184;DHT22;52989;48.796;9.806;2022-09-11T16:19:28;20.00;92.00
66184;DHT22;52989;48.796;9.806;2022-09-11T16:21:59;20.00;92.40
66184;DHT22;52989;48.796;9.806;2022-09-11T16:24:27;19.80;91.90
66184;DHT22;52989;48.796;9.806;2022-09-11T16:26:53;19.60;93.90
66184;DHT22;52989;48.796;9.806;2022-09-11T16:29:20;19.50;93.40
66184;DHT22;52989;48.796;9.806;2022-09-11T16:31:47;19.50;93.50
66184;DHT22;52989;48.796;9.806;2022-09-11T16:34:14;19.50;92.50
66184;DHT22;52989;48.796;9.806;2022-09-11T16:36:42;19.60;94.00
66184;DHT22;52989;48.796;9.806;2022-09-11T16:39:11;19.60;92.70
66184;DHT22;52989;48.796;9.806;2022-09-11T16:41:37;19.30;97.50
66184;DHT22;52989;48.796;9.806;2022-09-11T16:44:04;18.80;97.00
66184;DHT22;52989;48.796;9.806;2022-09-11T16:46:30;18.70;97.70
66184;DHT22;52989;48.796;9.806;2022-09-11T16:48:58;18.60;97.80
66184;DHT22;52989;48.796;9.806;2022-09-11T16:51:24;18.70;96.60
66184;DHT22;52989;48.796;9.806;2022-09-11T16:53:50;19.10;94.50
66184;DHT22;52989;48.796;9.806;2022-09-11T16:56:18;18.80;97.70
66184;DHT22;52989;48.796;9.806;2022-09-11T16:58:44;18.60;98.90
66184;DHT22;52989;48.796;9.806;2022-09-11T17:01:13;18.40;99.90
66184;DHT22;52989;48.796;9.806;2022-09-11T17:03:39;18.30;98.60
66184;DHT22;52989;48.796;9.806;2022-09-11T17:06:05;18.30;99.40
66184;DHT22;52989;48.796;9.806;2022-09-11T17:08:31;18.40;99.90
66184;DHT22;52989;48.796;9.806;2022-09-11T17:10:59;18.20;99.30
66184;DHT22;52989;48.796;9.806;2022-09-11T17:13:26;18.20;99.50
66184;DHT22;52989;48.796;9.806;2022-09-11T17:16:03;18.20;98.60
66184;DHT22;52989;48.796;9.806;2022-09-11T17:18:29;18.30;99.20
66184;DHT22;52989;48.796;9.806;2022-09-11T17:20:56;18.30;99.90
66184;DHT22;52989;48.796;9.806;2022-09-11T17:23:23;18.20;99.90
66184;DHT22;52989;48.796;9.806;2022-09-11T17:25:49;18.00;99.90
66184;DHT22;52989;48.796;9.806;2022-09-11T17:28:16;18.00;99.90
66184;DHT22;52989;48.796;9.806;2022-09-11T17:30:44;17.90;99.90
66184;DHT22;52989;48.796;9.806;2022-09-11T17:33:10;17.80;99.90
66184;DHT22;52989;48.796;9.806;2022-09-11T17:35:36;17.70;99.90
66184;DHT22;52989;48.796;9.806;2022-09-11T17:38:02;17.70;99.90